East Peoria, IL (61611)

2:13 PM CDT on August 22, 2017 (GMT -0500)
Midwest Engineering Associates East Peoria | | Change Station

Elev 468 ft 40.67 °N, 89.58 °W | Updated 0 second ago

Partly Cloudy
Partly Cloudy
77.3 °F
Feels Like 79 °F
N
9.1
Wind Variable Wind from NW
Gusts 14.0 mph

Today
High -- | Low -- °F
--% Chance of Precip.
Yesterday
High -- | Low -- °F
Precip. -- in
Pressure 29.98 in
Visibility 10.0 miles
Clouds Scattered Clouds 3200 ft
Heat Index 79 °F
Dew Point 62 °F
Humidity 60%
Rainfall 0.43 in
Snow Depth Not available.
6:15 AM 7:45 PM
New Moon, 1% visible
METAR KPIA 221854Z 34010G17KT 10SM SCT032 26/17 A2999 RMK AO2 SLP151 T02560172
Pressure 29.98 in
Visibility 10.0 miles
Clouds Scattered Clouds 3200 ft
Heat Index 79 °F
Dew Point 62 °F
Humidity 60%
Rainfall 0.43 in
Snow Depth Not available.
6:15 AM 7:45 PM
New Moon, 1% visible
METAR KPIA 221854Z 34010G17KT 10SM SCT032 26/17 A2999 RMK AO2 SLP151 T02560172

Get Severe Weather Alerts

Thanks for signing up!

Be on the lookout for a verification email in your inbox.

You'll start receiving the daily forecast at 6 AM.

×

10-Day Weather Forecast

Almanac

Astronomy

Aug. 22, 2017 Rise Set
Actual Time
Civil Twilight
Nautical Twilight
Astronomical Twilight
Moon
Length of Visible Light
Length of Day
Tomorrow will be .
, % of the Moon is Illuminated

Today's Extremes

State Highs State Lows

Community

WunderPhotos

Category 6

Welcome to Category 6. This is the collective home for Weather Underground's featured writeups by Dr. Jeff Masters (right), Bob Henson (left), Chris Burt, and other regular contributors.

Nearby

Air Quality

  Air Quality AQ Index Pollutant
Not available.

Snow Depth

Station Depth Elevation

Earthquake Activity

City Distance Mag. Time & Date
Minimum magnitude displayed is 2.5.

Coastal Water Temperatures

Place Temperature

Stations

Nearby Weather Stations

Station Location Temp. Windchill Dew Point Humidity Wind Precip. Elev Updated Type
                   

Watches & Warnings

There are currently no watches in effect.